Time;durP1;ratioP1;P1;durP2;ratioP2;P2;SDS_P1;SDS_P2;PMS_P1;PMS_P2;Temp;Humidity;BMP_temperature;BMP_pressure;BME280_temperature;BME280_humidity;BME280_pressure;Samples;Min_cycle;Max_cycle;Signal;HPM_P1;HPM_P2
2021/05/06 00:32:57;;;;;;;;;;;7.40;99.90;;;;;;5032887;28;20368;-77
2021/05/06 00:35:25;;;;;;;;;;;7.40;99.90;;;;;;5031524;28;20382;-77
2021/05/06 00:38:40;;;;;;;;;;;7.40;99.90;;;;;;5032645;28;19912;-77
2021/05/06 00:56:57;;;;;;;;;;;7.00;99.90;;;;;;5032445;28;19913;-77
2021/05/06 00:59:36;;;;;;;;;;;7.00;99.90;;;;;;5032247;28;20001;-76
2021/05/06 01:05:12;;;;;;;;;;;6.90;99.90;;;;;;4971218;28;20296;-76
2021/05/06 01:07:58;;;;;;;;;;;6.90;99.90;;;;;;5023372;28;19905;-77
2021/05/06 01:12:55;;;;;;;;;;;7.00;99.90;;;;;;5032422;28;19999;-77
2021/05/06 01:15:21;;;;;;;;;;;7.00;99.90;;;;;;5030970;28;20007;-77
2021/05/06 01:17:46;;;;;;;;;;;7.00;99.90;;;;;;5032397;28;19990;-76
2021/05/06 01:20:13;;;;;;;;;;;7.00;99.90;;;;;;5014628;28;19994;-77
2021/05/06 01:22:38;;;;;;;;;;;7.00;99.90;;;;;;5014580;28;19941;-77
2021/05/06 01:25:04;;;;;;;;;;;7.00;99.90;;;;;;5032170;28;20374;-77
2021/05/06 01:35:10;;;;;;;;;;;7.10;99.90;;;;;;5032015;28;19974;-77
2021/05/06 01:37:47;;;;;;;;;;;7.10;99.90;;;;;;5032317;28;19928;-77
2021/05/06 01:42:54;;;;;;;;;;;7.10;99.90;;;;;;5032401;28;20376;-77
2021/05/06 01:59:48;;;;;;;;;;;7.10;99.90;;;;;;5049337;28;19912;-78
2021/05/06 02:02:13;;;;;;;;;;;7.00;99.90;;;;;;5043445;28;19905;-77
2021/05/06 02:04:39;;;;;;;;;;;7.10;99.90;;;;;;5035616;28;19905;-77
2021/05/06 02:07:04;;;;;;;;;;;7.20;99.90;;;;;;5018105;28;20359;-77
2021/05/06 02:09:30;;;;;;;;;;;7.10;99.90;;;;;;5035624;28;20261;-77
2021/05/06 02:11:55;;;;;;;;;;;7.10;99.90;;;;;;5034505;28;19905;-77
2021/05/06 02:14:21;;;;;;;;;;;7.10;99.90;;;;;;5017364;28;19905;-77
2021/05/06 02:16:46;;;;;;;;;;;7.10;99.90;;;;;;5017627;28;20360;-77
2021/05/06 02:19:14;;;;;;;;;;;7.10;99.90;;;;;;5035475;28;19920;-77
2021/05/06 02:21:39;;;;;;;;;;;6.90;99.90;;;;;;5035441;28;19940;-78
2021/05/06 02:24:05;;;;;;;;;;;6.70;99.90;;;;;;5017253;28;19948;-77
2021/05/06 02:26:30;;;;;;;;;;;6.70;99.90;;;;;;5034081;28;19928;-77
2021/05/06 02:28:56;;;;;;;;;;;6.70;99.90;;;;;;5035233;28;19944;-77
2021/05/06 02:31:21;;;;;;;;;;;6.60;99.90;;;;;;5017467;28;19905;-77
2021/05/06 02:33:47;;;;;;;;;;;6.60;99.90;;;;;;5017114;28;19951;-77
2021/05/06 02:36:12;;;;;;;;;;;6.60;99.90;;;;;;5034791;28;19912;-77
2021/05/06 02:38:38;;;;;;;;;;;6.70;99.90;;;;;;5035032;28;19909;-77
2021/05/06 02:41:04;;;;;;;;;;;6.70;99.90;;;;;;5017064;28;19905;-77
2021/05/06 02:43:30;;;;;;;1.80;0.77;;;6.80;99.90;;;;;;5016397;28;19905;-77
2021/05/06 02:45:55;;;;;;;0.80;0.52;;;6.90;99.90;;;;;;5016424;28;20040;-77
2021/05/06 02:48:21;;;;;;;1.48;0.77;;;6.90;99.90;;;;;;5034248;28;20517;-76
2021/05/06 02:50:52;;;;;;;2.13;1.23;;;6.90;99.90;;;;;;5034151;28;20018;-76
2021/05/06 02:53:20;;;;;;;1.05;0.68;;;6.90;99.90;;;;;;5032721;28;20052;-76
2021/05/06 03:03:48;;;;;;;1.13;0.77;;;7.10;99.90;;;;;;5033877;28;20028;-77
2021/05/06 03:06:29;;;;;;;1.15;0.65;;;7.10;99.90;;;;;;5033153;28;20017;-76
2021/05/06 03:09:01;;;;;;;0.88;0.88;;;7.10;99.90;;;;;;5033999;28;20127;-77
2021/05/06 03:14:37;;;;;;;1.83;0.57;;;7.10;99.90;;;;;;5020149;28;20102;-76
2021/05/06 03:25:14;;;;;;;1.45;0.82;;;7.10;99.90;;;;;;5033294;28;20029;-77
2021/05/06 03:27:49;;;;;;;4.30;1.63;;;7.00;99.90;;;;;;5015824;28;20024;-77
2021/05/06 03:35:37;;;;;;;1.48;0.60;;;7.10;99.90;;;;;;5033005;28;20021;-76
2021/05/06 03:47:11;;;;;;;;;;;7.20;99.90;;;;;;5033497;28;19905;-76
2021/05/06 03:49:34;;;;;;;;;;;7.20;99.90;;;;;;5020050;28;19911;-77
2021/05/06 04:22:11;;;;;;;;;;;7.30;99.90;;;;;;5033226;28;19909;-77
2021/05/06 04:37:55;;;;;;;;;;;7.50;99.90;;;;;;4987572;28;19909;-77
2021/05/06 04:45:35;;;;;;;;;;;7.50;99.90;;;;;;5019508;28;19905;-77
2021/05/06 04:53:30;;;;;;;;;;;7.60;99.90;;;;;;5011990;28;19960;-77
2021/05/06 05:06:21;;;;;;;;;;;7.70;99.90;;;;;;5029570;28;19905;-77
2021/05/06 05:08:56;;;;;;;;;;;7.70;99.90;;;;;;5019027;28;20055;-77
2021/05/06 05:27:22;;;;;;;;;;;7.80;99.90;;;;;;5018034;28;19905;-77
2021/05/06 05:29:48;;;;;;;;;;;7.80;99.90;;;;;;5012832;28;19905;-77
2021/05/06 05:32:13;;;;;;;;;;;7.70;99.90;;;;;;5013868;28;19982;-77
2021/05/06 05:34:42;;;;;;;;;;;7.80;99.90;;;;;;5013912;28;19916;-77
2021/05/06 05:37:15;;;;;;;;;;;7.80;99.90;;;;;;5015048;28;19909;-77
2021/05/06 05:39:54;;;;;;;;;;;7.80;99.90;;;;;;5029991;28;20264;-77
2021/05/06 05:42:30;;;;;;;;;;;7.80;99.90;;;;;;5016937;28;19912;-77
2021/05/06 05:55:36;;;;;;;1.23;0.73;;;7.90;99.90;;;;;;5023611;28;20060;-77
2021/05/06 05:58:01;;;;;;;1.48;1.15;;;8.10;99.90;;;;;;5017146;28;20022;-76
2021/05/06 06:00:27;;;;;;;1.45;0.80;;;8.20;99.90;;;;;;5000724;28;20110;-76
2021/05/06 06:02:52;;;;;;;4.65;0.95;;;8.40;99.90;;;;;;5005884;28;20032;-76
2021/05/06 06:05:18;;;;;;;1.67;1.25;;;8.40;99.90;;;;;;5024201;28;20041;-76
2021/05/06 06:07:45;;;;;;;2.97;1.13;;;8.50;99.90;;;;;;5024545;28;20014;-77
2021/05/06 06:10:11;;;;;;;1.85;1.17;;;8.40;99.90;;;;;;5021718;28;20377;-76
2021/05/06 06:12:36;;;;;;;1.00;0.88;;;8.40;99.90;;;;;;5031278;28;20026;-76
2021/05/06 06:15:08;;;;;;;0.82;0.77;;;8.40;99.90;;;;;;5002817;28;20144;-76
2021/05/06 06:17:45;;;;;;;1.35;0.88;;;8.30;99.90;;;;;;5017182;28;20083;-76
2021/05/06 06:20:11;;;;;;;;;;;8.30;99.90;;;;;;5035485;28;20024;-76
2021/05/06 06:22:37;;;;;;;;;;;8.20;99.90;;;;;;5014117;28;19905;-76
2021/05/06 06:25:02;;;;;;;;;;;8.20;99.90;;;;;;5035811;28;19913;-76
2021/05/06 06:27:29;;;;;;;;;;;8.10;99.90;;;;;;5034082;28;19999;-76
2021/05/06 06:29:55;;;;;;;1.20;0.68;;;8.00;99.90;;;;;;5017372;28;20323;-76
2021/05/06 06:32:21;;;;;;;1.23;0.82;;;8.00;99.90;;;;;;5017353;28;20025;-76
2021/05/06 06:34:47;;;;;;;1.08;0.68;;;7.90;99.90;;;;;;5016474;28;20075;-76
2021/05/06 06:37:13;;;;;;;4.07;0.93;;;7.80;99.90;;;;;;5033595;28;20075;-76
2021/05/06 06:39:40;;;;;;;1.02;0.75;;;7.80;99.90;;;;;;5017067;28;20469;-76
2021/05/06 06:42:10;;;;;;;0.73;0.73;;;7.90;99.90;;;;;;5033361;28;20174;-76
2021/05/06 06:44:36;;;;;;;2.53;1.27;;;7.90;99.90;;;;;;5016263;28;20109;-76
2021/05/06 06:47:04;;;;;;;1.13;0.95;;;7.90;99.90;;;;;;5002761;28;20129;-76
2021/05/06 06:49:40;;;;;;;1.40;0.77;;;7.90;99.90;;;;;;4997177;28;20176;-77
2021/05/06 06:52:10;;;;;;;3.40;1.35;;;7.90;99.90;;;;;;4997228;28;20381;-77
2021/05/06 06:54:36;;;;;;;1.92;1.00;;;7.80;99.90;;;;;;5014130;28;20405;-77
2021/05/06 06:57:06;;;;;;;2.10;1.02;;;7.90;99.90;;;;;;4997056;28;20026;-80
2021/05/06 06:59:32;;;;;;;1.17;0.65;;;7.80;99.90;;;;;;4996560;28;20026;-77
2021/05/06 07:01:57;;;;;;;2.10;1.65;;;7.90;99.90;;;;;;4996500;28;20030;-77
2021/05/06 07:04:23;;;;;;;4.03;1.60;;;7.90;99.90;;;;;;4996291;28;20022;-77
2021/05/06 07:06:48;;;;;;;3.25;1.75;;;7.90;99.90;;;;;;5013884;28;20029;-77
2021/05/06 07:09:14;;;;;;;2.47;1.25;;;7.90;99.90;;;;;;4996743;28;20030;-78
2021/05/06 07:11:40;;;;;;;3.97;1.17;;;7.90;99.90;;;;;;5016371;28;20022;-81
2021/05/06 07:14:06;;;;;;;2.67;1.67;;;8.00;99.90;;;;;;5013562;28;20025;-77
2021/05/06 07:16:32;;;;;;;6.68;2.13;;;8.00;99.90;;;;;;5016679;28;20037;-77
2021/05/06 07:18:58;;;;;;;3.75;1.92;;;7.90;99.90;;;;;;5033320;28;20021;-77
2021/05/06 07:21:25;;;;;;;3.35;1.88;;;7.90;99.90;;;;;;5033539;28;20087;-77
2021/05/06 07:23:55;;;;;;;4.25;2.10;;;8.00;99.90;;;;;;5011996;28;20517;-77
2021/05/06 07:26:22;;;;;;;;;;;8.00;99.90;;;;;;5012978;28;19910;-77
2021/05/06 07:28:49;;;;;;;;;;;8.10;99.90;;;;;;5012893;28;19905;-77
2021/05/06 07:31:15;;;;;;;;;;;8.10;99.90;;;;;;5012919;28;19951;-76
2021/05/06 07:33:42;;;;;;;;;;;8.00;99.90;;;;;;5013819;28;19941;-76
2021/05/06 07:36:09;;;;;;;;;;;8.20;99.90;;;;;;5012394;28;19910;-77
2021/05/06 07:38:34;;;;;;;;;;;8.30;99.90;;;;;;5012083;28;19917;-77
2021/05/06 07:41:00;;;;;;;;;;;8.40;99.90;;;;;;5015880;28;19929;-77
2021/05/06 07:43:27;;;;;;;;;;;8.60;99.90;;;;;;5031650;28;19905;-77
2021/05/06 07:45:52;;;;;;;;;;;8.70;99.90;;;;;;5015355;28;19912;-77
2021/05/06 07:48:18;;;;;;;;;;;8.80;99.90;;;;;;5015463;28;19905;-77
2021/05/06 07:50:44;;;;;;;;;;;9.00;99.90;;;;;;5015780;28;19905;-77
2021/05/06 07:53:14;;;;;;;;;;;9.10;99.90;;;;;;5032696;28;19905;-77
2021/05/06 07:55:40;;;;;;;;;;;9.30;99.90;;;;;;5032376;28;20307;-78
2021/05/06 07:58:06;;;;;;;;;;;9.60;99.90;;;;;;5015528;28;19909;-77
2021/05/06 08:00:34;;;;;;;;;;;9.80;99.90;;;;;;5015349;28;20003;-77
2021/05/06 08:02:59;;;;;;;;;;;9.90;99.90;;;;;;5033022;28;20324;-77
2021/05/06 08:05:25;;;;;;;;;;;10.00;99.90;;;;;;5032675;28;19948;-76
2021/05/06 08:07:51;;;;;;;;;;;10.10;99.90;;;;;;5031846;28;19905;-77
2021/05/06 08:10:17;;;;;;;;;;;9.90;99.90;;;;;;5033174;28;20360;-76
2021/05/06 08:12:43;;;;;;;;;;;9.90;99.90;;;;;;5033098;28;19912;-77
2021/05/06 08:15:09;;;;;;;;;;;9.90;99.90;;;;;;5032859;28;19905;-77
2021/05/06 08:17:38;;;;;;;;;;;9.90;99.90;;;;;;5015146;28;19931;-77
2021/05/06 08:20:06;;;;;;;;;;;10.10;99.90;;;;;;5015388;28;19905;-77
2021/05/06 08:22:32;;;;;;;;;;;10.10;99.90;;;;;;5015268;28;20379;-77
2021/05/06 08:24:57;;;;;;;;;;;10.20;99.90;;;;;;5014936;28;19956;-77
2021/05/06 08:27:23;;;;;;;;;;;10.40;99.90;;;;;;5033896;28;19915;-77
2021/05/06 08:29:48;;;;;;;;;;;10.60;99.90;;;;;;5015606;28;19912;-78
2021/05/06 08:32:14;;;;;;;;;;;11.50;99.90;;;;;;5032811;28;19967;-79
2021/05/06 08:34:39;;;;;;;;;;;11.80;99.90;;;;;;5037930;28;20351;-79
2021/05/06 08:37:05;;;;;;;;;;;11.50;99.90;;;;;;5038765;28;19909;-78
2021/05/06 08:39:30;;;;;;;;;;;11.30;99.90;;;;;;5020302;28;20000;-79
2021/05/06 08:41:56;;;;;;;;;;;11.70;99.90;;;;;;5016397;28;20257;-79
2021/05/06 08:44:27;;;;;;;;;;;11.90;99.90;;;;;;5051309;22;20042;-80
2021/05/06 08:47:07;;;;;;;;;;;11.90;99.90;;;;;;5014311;28;19948;-80
2021/05/06 08:49:34;;;;;;;;;;;11.70;99.90;;;;;;5015181;28;20318;-81
2021/05/06 08:52:01;;;;;;;;;;;11.90;99.90;;;;;;5015496;28;19924;-81
2021/05/06 08:54:27;;;;;;;;;;;11.90;99.90;;;;;;5032587;28;20370;-81
2021/05/06 08:56:53;;;;;;;;;;;11.50;99.90;;;;;;5014931;28;20366;-81
2021/05/06 08:59:19;;;;;;;;;;;11.40;99.90;;;;;;5015264;28;19924;-81
2021/05/06 09:01:46;;;;;;;;;;;11.10;99.90;;;;;;5015481;28;19905;-81
2021/05/06 09:04:13;;;;;;;;;;;11.10;99.90;;;;;;5016020;28;20262;-82
2021/05/06 09:06:59;;;;;;;;;;;11.20;99.90;;;;;;5024495;28;19909;-81
2021/05/06 09:09:26;;;;;;;;;;;11.30;99.90;;;;;;5002057;28;20004;-81
2021/05/06 09:11:53;;;;;;;;;;;12.10;99.90;;;;;;5011640;28;20362;-82
2021/05/06 09:14:20;;;;;;;;;;;13.20;99.90;;;;;;5022642;28;19909;-82
2021/05/06 09:16:47;;;;;;;1.30;1.20;;;14.00;99.90;;;;;;5021485;28;19909;-81
2021/05/06 09:19:15;;;;;;;2.03;0.90;;;14.80;99.90;;;;;;5024093;28;20029;-80
2021/05/06 09:21:42;;;;;;;;;;;15.50;99.90;;;;;;5025436;28;20079;-81
2021/05/06 09:24:09;;;;;;;;;;;15.80;99.90;;;;;;5011343;28;19905;-81
2021/05/06 09:26:35;;;;;;;;;;;15.70;99.90;;;;;;5001684;28;19916;-81
2021/05/06 09:29:02;;;;;;;;;;;16.40;99.90;;;;;;5002086;28;19905;-81
2021/05/06 09:31:28;;;;;;;;;;;16.20;99.90;;;;;;5001096;28;19995;-81
2021/05/06 09:33:54;;;;;;;2.20;1.50;;;16.00;99.90;;;;;;5000748;28;19910;-82
2021/05/06 09:36:25;;;;;;;1.48;1.13;;;16.90;99.90;;;;;;5002765;28;20091;-82
2021/05/06 09:38:54;;;;;;;4.05;1.85;;;16.70;99.90;;;;;;5001538;28;20022;-82
2021/05/06 09:41:21;;;;;;;3.78;1.70;;;16.40;99.90;;;;;;5001568;28;20026;-81
2021/05/06 09:43:49;;;;;;;;;;;16.00;99.90;;;;;;5001787;28;20045;-81
2021/05/06 09:46:37;;;;;;;2.15;1.35;;;15.10;99.90;;;;;;5019621;28;19913;-80
2021/05/06 09:49:18;;;;;;;2.78;1.13;;;14.60;99.90;;;;;;5002142;28;20030;-82
2021/05/06 09:51:58;;;;;;;5.13;1.50;;;14.10;99.90;;;;;;5003988;28;20638;-82
2021/05/06 09:54:27;;;;;;;3.60;1.63;;;13.90;99.90;;;;;;5002806;28;20486;-81
2021/05/06 09:56:56;;;;;;;;;;;13.30;99.90;;;;;;5018756;28;20125;-81
2021/05/06 09:59:24;;;;;;;2.25;1.42;;;12.70;99.90;;;;;;5001866;28;19927;-80
2021/05/06 10:01:50;;;;;;;1.55;1.45;;;12.40;99.90;;;;;;5021616;28;20025;-81
2021/05/06 10:04:22;;;;;;;2.50;1.33;;;12.40;99.90;;;;;;5021060;28;20119;-81
2021/05/06 10:07:15;;;;;;;3.05;1.15;;;12.10;99.90;;;;;;5021243;28;20033;-80
2021/05/06 10:10:00;;;;;;;;;;;11.70;99.90;;;;;;5019862;28;20026;-80
2021/05/06 10:12:27;;;;;;;;;;;11.30;99.90;;;;;;5020529;28;19959;-80
2021/05/06 10:14:54;;;;;;;;;;;11.20;99.90;;;;;;5012513;28;20032;-80
2021/05/06 10:17:20;;;;;;;;;;;11.20;99.90;;;;;;5035843;28;20361;-80
2021/05/06 10:19:48;;;;;;;7.00;1.98;;;11.50;99.90;;;;;;5050622;28;20445;-80
2021/05/06 10:22:16;;;;;;;4.18;1.20;;;11.80;99.90;;;;;;5054011;28;20017;-80
2021/05/06 10:24:44;;;;;;;4.65;1.70;;;11.80;99.90;;;;;;5052243;28;20025;-80
2021/05/06 10:27:11;;;;;;;;;;;11.80;99.90;;;;;;5035899;28;20497;-81
2021/05/06 10:29:37;;;;;;;;;;;11.80;99.90;;;;;;5033552;28;19912;-80
2021/05/06 10:32:03;;;;;;;;;;;11.60;99.90;;;;;;5030822;28;19909;-81
2021/05/06 10:34:32;;;;;;;;;;;11.60;99.90;;;;;;5016189;28;20354;-80
2021/05/06 10:36:59;;;;;;;;;;;11.70;99.90;;;;;;5023058;28;19967;-81
2021/05/06 10:39:38;;;;;;;;;;;11.90;99.90;;;;;;5037103;28;20000;-81
2021/05/06 10:42:22;;;;;;;;;;;12.40;99.90;;;;;;5028361;28;20154;-81
2021/05/06 10:44:48;;;;;;;;;;;12.20;99.90;;;;;;5028314;28;19912;-80
2021/05/06 10:47:17;;;;;;;;;;;12.10;99.90;;;;;;5027718;28;19913;-81
2021/05/06 10:49:43;;;;;;;;;;;12.00;99.90;;;;;;5026342;28;19905;-81
2021/05/06 10:52:11;;;;;;;;;;;12.00;99.90;;;;;;5021238;28;19911;-81
2021/05/06 10:54:40;;;;;;;;;;;12.20;99.90;;;;;;5024111;28;20392;-80
2021/05/06 10:57:12;;;;;;;;;;;12.30;99.90;;;;;;5025503;28;19908;-80
2021/05/06 10:59:40;;;;;;;;;;;12.30;99.90;;;;;;5025159;28;20011;-80
2021/05/06 11:02:07;;;;;;;;;;;12.20;99.90;;;;;;5024850;28;19905;-80
2021/05/06 11:04:36;;;;;;;;;;;12.00;99.90;;;;;;5023163;28;19940;-81
2021/05/06 11:07:11;;;;;;;;;;;11.90;99.90;;;;;;5021069;28;19936;-81
2021/05/06 11:09:43;;;;;;;;;;;11.80;99.90;;;;;;5022985;28;19904;-81
2021/05/06 11:12:15;;;;;;;;;;;11.50;99.90;;;;;;5037517;28;19904;-80
2021/05/06 11:15:07;;;;;;;;;;;11.30;99.90;;;;;;5035902;28;20281;-82
2021/05/06 11:17:34;;;;;;;;;;;11.30;99.90;;;;;;4998838;28;19916;-81
2021/05/06 11:20:00;;;;;;;;;;;11.50;99.90;;;;;;5035510;28;19931;-81
2021/05/06 11:22:41;;;;;;;;;;;11.50;99.90;;;;;;5036185;28;19928;-81
2021/05/06 11:25:37;;;;;;;3.53;1.20;;;11.50;99.90;;;;;;5046428;28;20170;-80
2021/05/06 11:28:18;;;;;;;2.67;1.02;;;11.60;99.90;;;;;;5018657;28;20022;-81
2021/05/06 11:30:48;;;;;;;2.95;1.55;;;11.90;99.90;;;;;;5017521;28;20194;-81
2021/05/06 11:33:20;;;;;;;10.02;3.15;;;12.00;99.90;;;;;;5020399;28;20056;-81
2021/05/06 11:36:17;;;;;;;3.15;1.20;;;12.00;99.90;;;;;;5017554;28;20025;-80
2021/05/06 11:38:50;;;;;;;3.50;1.33;;;11.70;99.90;;;;;;5021924;28;20049;-81
2021/05/06 11:41:29;;;;;;;2.55;1.27;;;11.30;99.90;;;;;;5020568;28;20124;-81
2021/05/06 11:43:57;;;;;;;6.10;2.08;;;11.10;99.90;;;;;;5032166;28;20025;-80
2021/05/06 11:46:28;;;;;;;3.15;1.90;;;10.90;99.90;;;;;;5037817;28;20021;-81
2021/05/06 11:49:03;;;;;;;2.50;1.70;;;10.60;99.90;;;;;;5036683;28;20027;-81
2021/05/06 11:51:38;;;;;;;;;;;10.40;99.90;;;;;;5037160;28;20141;-81
2021/05/06 11:54:15;;;;;;;2.83;1.52;;;10.60;99.90;;;;;;5037582;28;20085;-82
2021/05/06 11:56:45;;;;;;;5.18;1.58;;;10.50;99.90;;;;;;5020913;28;20029;-81
2021/05/06 11:59:15;;;;;;;;;;;10.50;99.90;;;;;;5017311;28;19905;-80
2021/05/06 12:01:41;;;;;;;1.85;1.73;;;10.40;99.90;;;;;;4998658;28;19988;-80
2021/05/06 12:04:20;;;;;;;3.15;2.38;;;10.30;99.90;;;;;;4997700;28;20037;-81
2021/05/06 12:06:46;;;;;;;;;;;10.30;99.90;;;;;;4998033;28;20022;-80
2021/05/06 12:09:42;;;;;;;5.18;2.40;;;10.50;99.90;;;;;;4996710;28;19906;-80
2021/05/06 12:12:08;;;;;;;2.80;2.08;;;10.30;99.90;;;;;;4998510;28;20506;-80
2021/05/06 12:14:36;;;;;;;;;;;10.30;99.90;;;;;;4996898;28;20111;-81
2021/05/06 12:17:04;;;;;;;;;;;10.40;99.90;;;;;;4997770;28;19913;-81
2021/05/06 12:19:30;;;;;;;;;;;10.50;99.90;;;;;;4996990;28;20043;-81
2021/05/06 12:21:58;;;;;;;;;;;10.70;99.90;;;;;;4997016;28;20112;-80
2021/05/06 12:24:24;;;;;;;;;;;10.80;99.90;;;;;;4995473;28;19909;-81
2021/05/06 12:26:50;;;;;;;;;;;10.80;99.90;;;;;;4996117;28;24128;-80
2021/05/06 12:29:22;;;;;;;;;;;10.90;99.90;;;;;;4992547;28;19911;-80
2021/05/06 12:31:49;;;;;;;;;;;10.90;99.90;;;;;;4994359;28;19905;-80
2021/05/06 12:34:20;;;;;;;;;;;10.70;99.90;;;;;;4995150;28;19910;-80
2021/05/06 12:36:52;;;;;;;;;;;10.70;99.90;;;;;;4995784;28;20004;-80
2021/05/06 12:39:21;;;;;;;;;;;10.50;99.90;;;;;;4996111;28;19932;-81
2021/05/06 12:41:55;;;;;;;;;;;10.50;99.90;;;;;;4997018;28;20281;-81
2021/05/06 12:44:39;;;;;;;;;;;10.60;99.90;;;;;;4996055;28;19914;-81
2021/05/06 12:47:17;;;;;;;;;;;10.60;99.90;;;;;;4996599;28;19905;-81
2021/05/06 12:49:43;;;;;;;;;;;10.50;99.90;;;;;;4996778;28;19944;-80
2021/05/06 12:52:27;;;;;;;;;;;10.80;99.90;;;;;;4995889;28;19921;-81
2021/05/06 12:54:53;;;;;;;;;;;10.80;99.90;;;;;;5006699;28;19919;-80
2021/05/06 12:57:20;;;;;;;;;;;10.60;99.90;;;;;;5014753;28;19909;-80
2021/05/06 12:59:49;;;;;;;;;;;10.60;99.90;;;;;;5016736;28;19982;-81
2021/05/06 13:02:18;;;;;;;;;;;10.60;99.90;;;;;;5017333;28;19912;-81
2021/05/06 13:04:45;;;;;;;;;;;10.80;99.90;;;;;;5017863;28;20420;-79
2021/05/06 13:07:11;;;;;;;;;;;11.00;99.90;;;;;;5039661;28;19909;-80
2021/05/06 13:09:41;;;;;;;;;;;10.80;99.90;;;;;;5031468;28;19916;-81
2021/05/06 13:12:12;;;;;;;;;;;10.70;99.90;;;;;;5033746;28;19920;-81
2021/05/06 13:14:48;;;;;;;;;;;10.70;99.90;;;;;;5025962;28;19909;-80
2021/05/06 13:17:28;;;;;;;;;;;10.60;99.90;;;;;;5029025;28;19921;-80
2021/05/06 13:19:56;;;;;;;;;;;10.60;99.90;;;;;;5028176;28;19917;-81
2021/05/06 13:22:22;;;;;;;;;;;10.60;99.90;;;;;;5035836;28;19909;-80
2021/05/06 13:24:50;;;;;;;;;;;10.50;99.90;;;;;;5035267;28;19912;-80
2021/05/06 13:27:24;;;;;;;;;;;10.40;99.90;;;;;;5033157;28;19905;-79
2021/05/06 13:29:58;;;;;;;;;;;10.20;99.90;;;;;;5032895;28;19905;-80
2021/05/06 13:32:50;;;;;;;;;;;10.10;99.90;;;;;;5033249;28;19911;-80
2021/05/06 13:35:18;;;;;;;;;;;10.10;99.90;;;;;;5028756;28;19950;-81
2021/05/06 13:37:46;;;;;;;;;;;10.10;99.90;;;;;;5033947;28;24077;-81
2021/05/06 13:40:12;;;;;;;;;;;10.10;99.90;;;;;;5035268;28;19948;-81
2021/05/06 13:42:39;;;;;;;;;;;10.20;99.90;;;;;;5034967;28;19905;-81
2021/05/06 13:45:06;;;;;;;;;;;10.20;99.90;;;;;;5034901;28;19920;-80
2021/05/06 13:47:32;;;;;;;;;;;10.20;99.90;;;;;;5035890;28;20354;-81
2021/05/06 13:49:58;;;;;;;;;;;10.20;99.90;;;;;;5035734;28;19939;-81
2021/05/06 13:52:26;;;;;;;;;;;10.30;99.90;;;;;;5037924;28;19904;-81
2021/05/06 13:54:54;;;;;;;;;;;10.30;99.90;;;;;;5037565;28;19982;-81
2021/05/06 13:57:20;;;;;;;;;;;10.30;99.90;;;;;;5037541;28;20392;-81
2021/05/06 13:59:46;;;;;;;;;;;10.40;99.90;;;;;;5038131;28;19909;-81
2021/05/06 14:02:15;;;;;;;;;;;10.50;99.90;;;;;;5039025;28;19905;-81
2021/05/06 14:04:42;;;;;;;;;;;10.50;99.90;;;;;;5037271;28;19996;-81
2021/05/06 14:07:09;;;;;;;;;;;10.40;99.90;;;;;;5038862;28;20222;-81
2021/05/06 14:09:34;;;;;;;;;;;10.60;99.90;;;;;;5038919;28;20004;-81
2021/05/06 14:12:01;;;;;;;;;;;10.80;99.90;;;;;;5038430;28;19916;-81
2021/05/06 14:14:27;;;;;;;;;;;10.70;99.90;;;;;;5024194;28;20047;-80
2021/05/06 14:16:56;;;;;;;;;;;10.60;99.90;;;;;;5018311;28;20123;-81
2021/05/06 14:19:23;;;;;;;;;;;10.60;99.90;;;;;;5018869;28;20039;-81
2021/05/06 14:21:52;;;;;;;;;;;10.60;99.90;;;;;;5019337;28;19937;-81
2021/05/06 14:24:19;;;;;;;;;;;10.70;99.90;;;;;;5023648;28;19904;-79
2021/05/06 14:26:47;;;;;;;;;;;10.60;99.90;;;;;;5025235;28;20354;-79
2021/05/06 14:29:15;;;;;;;;;;;10.50;99.90;;;;;;5027005;28;19905;-79
2021/05/06 14:31:41;;;;;;;;;;;10.40;99.90;;;;;;5016047;28;19988;-79
2021/05/06 14:34:07;;;;;;;;;;;10.30;99.90;;;;;;5015751;28;20377;-80
2021/05/06 14:36:32;;;;;;;;;;;10.10;99.90;;;;;;5016763;28;19955;-81
2021/05/06 14:39:01;;;;;;;;;;;9.90;99.90;;;;;;5016539;28;19971;-80
2021/05/06 14:41:27;;;;;;;;;;;9.80;99.90;;;;;;5017041;28;19921;-81
2021/05/06 14:43:54;;;;;;;;;;;9.80;99.90;;;;;;5016971;28;20366;-80
2021/05/06 14:46:23;;;;;;;;;;;9.80;99.90;;;;;;5018534;28;19924;-81
2021/05/06 14:48:49;;;;;;;1.65;0.80;;;9.80;99.90;;;;;;5033724;28;19909;-81
2021/05/06 14:51:15;;;;;;;;;;;9.60;99.90;;;;;;5037418;28;19909;-80
2021/05/06 14:53:42;;;;;;;;;;;9.60;99.90;;;;;;5022653;28;20370;-81
2021/05/06 14:56:08;;;;;;;;;;;9.70;99.90;;;;;;5017512;28;19915;-82
2021/05/06 14:58:35;;;;;;;;;;;9.70;99.90;;;;;;5017436;28;20333;-81
2021/05/06 15:01:02;;;;;;;;;;;9.60;99.90;;;;;;5016564;28;20366;-81
2021/05/06 15:03:29;;;;;;;1.13;0.85;;;9.80;99.90;;;;;;5032476;28;19988;-81
2021/05/06 15:05:56;;;;;;;0.88;0.63;;;10.00;99.90;;;;;;5017274;28;20493;-81
2021/05/06 15:08:22;;;;;;;0.43;0.43;;;10.20;99.90;;;;;;5016361;28;20021;-80
2021/05/06 15:10:48;;;;;;;1.40;1.08;;;10.20;99.90;;;;;;5016065;28;20028;-80
2021/05/06 15:13:15;;;;;;;0.77;0.73;;;9.90;99.90;;;;;;5016006;28;20025;-80
2021/05/06 15:15:41;;;;;;;0.45;0.43;;;9.80;99.90;;;;;;5015155;28;20022;-80
2021/05/06 15:18:08;;;;;;;0.60;0.60;;;9.90;99.90;;;;;;5017334;28;20466;-81
2021/05/06 15:20:34;;;;;;;0.75;0.57;;;10.10;99.90;;;;;;5032992;28;20492;-81
2021/05/06 15:23:01;;;;;;;1.27;0.73;;;10.00;99.90;;;;;;5016249;28;20025;-81
2021/05/06 15:25:27;;;;;;;;;;;9.80;99.90;;;;;;5017583;28;20532;-81
2021/05/06 15:27:53;;;;;;;0.87;0.60;;;9.60;99.90;;;;;;5017865;28;20255;-81
2021/05/06 15:30:21;;;;;;;1.02;0.75;;;9.60;99.90;;;;;;5016784;28;20318;-82
2021/05/06 15:32:48;;;;;;;1.13;0.90;;;9.60;99.90;;;;;;5016694;28;20028;-81
2021/05/06 15:35:16;;;;;;;1.50;1.08;;;9.60;99.90;;;;;;5019156;28;20475;-81
2021/05/06 15:37:42;;;;;;;4.07;1.67;;;9.60;99.90;;;;;;5016721;28;20037;-81
2021/05/06 15:40:11;;;;;;;4.18;1.88;;;9.50;99.90;;;;;;5016175;28;20048;-80
2021/05/06 15:42:39;;;;;;;2.47;1.08;;;9.50;99.90;;;;;;5016189;28;20521;-80
2021/05/06 15:45:08;;;;;;;3.47;2.03;;;9.50;99.90;;;;;;5031766;28;20040;-80
2021/05/06 15:47:34;;;;;;;2.53;1.25;;;9.50;99.90;;;;;;5035268;28;20436;-80
2021/05/06 15:50:03;;;;;;;3.30;1.10;;;9.50;99.90;;;;;;5038398;28;20025;-81
2021/05/06 15:52:29;;;;;;;1.15;0.70;;;9.50;99.90;;;;;;5036477;28;20025;-81
2021/05/06 15:54:56;;;;;;;1.98;1.10;;;9.50;99.90;;;;;;5019304;28;20024;-81
2021/05/06 15:57:23;;;;;;;1.13;0.95;;;9.60;99.90;;;;;;5026242;28;20444;-81
2021/05/06 15:59:50;;;;;;;2.25;1.38;;;9.60;99.90;;;;;;5028109;28;20025;-81
2021/05/06 16:02:19;;;;;;;2.38;0.80;;;9.60;99.90;;;;;;5040061;28;20057;-81
2021/05/06 16:04:45;;;;;;;3.90;1.48;;;9.60;99.90;;;;;;5047726;28;20078;-81
2021/05/06 16:07:11;;;;;;;0.70;0.60;;;9.80;99.90;;;;;;5044160;28;20053;-81
2021/05/06 16:09:38;;;;;;;2.05;1.25;;;10.00;99.90;;;;;;5028917;28;20394;-82
2021/05/06 16:12:04;;;;;;;1.85;1.20;;;9.90;99.90;;;;;;5018152;28;20025;-81
2021/05/06 16:14:31;;;;;;;1.27;0.93;;;10.00;99.90;;;;;;5015414;28;20029;-80
2021/05/06 16:17:04;;;;;;;1.30;1.20;;;9.90;99.90;;;;;;5015918;28;19908;-81
2021/05/06 16:19:31;;;;;;;1.75;1.35;;;9.80;99.90;;;;;;5015997;28;20340;-81
2021/05/06 16:21:57;;;;;;;1.15;1.05;;;9.90;99.90;;;;;;5015268;28;19909;-81
2021/05/06 16:24:26;;;;;;;0.90;0.90;;;9.80;99.90;;;;;;5022968;28;19908;-80
2021/05/06 16:27:22;;;;;;;1.25;1.15;;;9.80;99.90;;;;;;5044207;28;20469;-81
2021/05/06 16:29:48;;;;;;;0.98;0.85;;;9.90;99.90;;;;;;5036621;28;19904;-82
2021/05/06 16:32:14;;;;;;;2.33;1.25;;;9.80;99.90;;;;;;5040060;22;19974;-77
2021/05/06 16:34:41;;;;;;;1.75;1.00;;;9.70;99.90;;;;;;5031665;28;20008;-77
2021/05/06 16:37:31;;;;;;;2.88;2.08;;;9.60;99.90;;;;;;5028210;28;19963;-77
2021/05/06 16:40:13;;;;;;;;;;;9.50;99.90;;;;;;5030404;28;19917;-77
2021/05/06 16:43:08;;;;;;;;;;;9.50;99.90;;;;;;5020087;28;19905;-77
2021/05/06 16:45:30;;;;;;;2.75;1.50;;;9.50;99.90;;;;;;5030297;28;19916;-78
2021/05/06 16:47:55;;;;;;;;;;;9.30;99.90;;;;;;5013769;28;19905;-77
2021/05/06 16:50:21;;;;;;;;;;;9.20;99.90;;;;;;5011977;28;25069;-78
2021/05/06 16:52:48;;;;;;;;;;;9.30;99.90;;;;;;5024289;28;24065;-77
2021/05/06 16:55:15;;;;;;;;;;;9.30;99.90;;;;;;5029115;28;24068;-77
2021/05/06 16:57:40;;;;;;;;;;;9.20;99.90;;;;;;5050019;28;20003;-78
2021/05/06 17:00:06;;;;;;;;;;;9.30;99.90;;;;;;5042804;28;24101;-78
2021/05/06 17:02:31;;;;;;;;;;;9.40;99.90;;;;;;5023802;28;19909;-78
2021/05/06 17:04:57;;;;;;;;;;;9.40;99.90;;;;;;5019841;28;19904;-78
2021/05/06 17:07:22;;;;;;;1.30;1.20;;;9.30;99.90;;;;;;5021729;28;19905;-78
2021/05/06 17:09:49;;;;;;;1.55;1.30;;;9.40;99.90;;;;;;5032662;28;19905;-78
2021/05/06 17:12:14;;;;;;;;;;;9.50;99.90;;;;;;5038186;28;19987;-79
2021/05/06 17:14:40;;;;;;;1.25;1.05;;;9.60;99.90;;;;;;5045379;28;20062;-78
2021/05/06 17:17:06;;;;;;;2.20;1.80;;;9.50;99.90;;;;;;5045139;28;19963;-77
2021/05/06 17:19:32;;;;;;;2.13;1.35;;;9.50;99.90;;;;;;5031692;28;20095;-78